Garden State — KGSG — position and weather

sailwx.info

Track history (hours):
 
Tides and Currents Weather Stations Pressure Air Temp Water Temp Dewpoint Dewpoint Depression Visibility Wind Speed Wind Dir Waves Ship Positions

Garden State

Owner: Crowley Petroleum Services, Inc., Jacksonville, FL. More information available from US FCC via Universal Licensing System and Coast Guard Vessel Documentation Center.

Last reported at 2018-May-27 03:31 UTC. Time now 2018-May-28 01:34 UTC.
Position N 29°16' W 093°39'.

Length 186 m; draft 11.5 m.

Type: Tanker. MMSI: 367102000.

Date/timePositionNaut miles runAvg speedWind from/ knotsBaromVisibWave heightAir tempDewpointWater temp
2018-May-27 03:31N 29°16' W 093°39'5 9.6
2018-May-27 03:00N 29°20' W 093°40'4 7.8
2018-May-27 02:30N 29°24' W 093°40'4 7.8
2018-May-27 02:00N 29°28' W 093°40'511.1
2018-May-27 01:30N 29°32' W 093°44'611.2
2018-May-27 01:01N 29°36' W 093°48'611.8
2018-May-27 00:30N 29°42' W 093°51'5 9.6
2018-May-27 00:01N 29°46' W 093°54'4 7.4
2018-May-26 23:31N 29°48' W 093°57'3 6.8
2018-May-26 23:00N 29°52' W 093°56'3 7.0
2018-May-26 22:30N 29°54' W 093°54'3 5.8
2018-May-26 22:00N 29°57' W 093°52'3 5.1
2018-May-26 21:30N 29°59' W 093°53'3 5.7
2018-May-26 21:00N 29°60' W 093°56'2 4.9
2018-May-26 20:30N 30°01' W 093°59'3 5.2
2018-May-26 20:00N 30°01' W 094°02'1 1.9
2018-May-26 19:30N 30°02' W 094°02'0 0.0
2018-May-26 18:58N 30°02' W 094°02'0 0.0
2018-May-26 18:28N 30°02' W 094°02'0 0.0
2018-May-26 17:58N 30°02' W 094°02'0 0.0
2018-May-26 17:28N 30°02' W 094°02'0 0.0
2018-May-26 16:58N 30°02' W 094°02'0 0.0
2018-May-26 16:28N 30°02' W 094°02'0 0.0
2018-May-26 15:58N 30°02' W 094°02'0 0.0
2018-May-26 15:28N 30°02' W 094°02'0 0.0
2018-May-26 14:58N 30°02' W 094°02'0 0.0
2018-May-26 14:25N 30°02' W 094°02'0 0.0
2018-May-26 13:55N 30°02' W 094°02'0 0.0
2018-May-26 13:28N 30°02' W 094°02'0 0.0
2018-May-26 12:55N 30°02' W 094°02'0 0.0
2018-May-26 12:22N 30°02' W 094°02'0 0.0
2018-May-26 11:58N 30°02' W 094°02'0 0.0
2018-May-26 11:28N 30°02' W 094°02'0 0.0
2018-May-26 10:58N 30°02' W 094°02'0 0.0
2018-May-26 10:28N 30°02' W 094°02'0 0.0
2018-May-26 09:58N 30°02' W 094°02'0 0.0
2018-May-26 09:28N 30°02' W 094°02'0 0.0
2018-May-26 08:58N 30°02' W 094°02'0 0.0
2018-May-26 08:28N 30°02' W 094°02'0 0.0
2018-May-26 07:58N 30°02' W 094°02'0 0.0
2018-May-26 07:28N 30°02' W 094°02'0 0.0
2018-May-26 06:55N 30°02' W 094°02'0 0.0
2018-May-26 06:28N 30°02' W 094°02'0 0.0
2018-May-26 05:30N 30°02' W 094°02'0 0.0
2018-May-26 05:00N 30°02' W 094°02'0 0.0
2018-May-26 04:30N 30°02' W 094°02'0 0.0
2018-May-26 03:57N 30°02' W 094°02'0 0.0
2018-May-26 03:30N 30°02' W 094°02'0 0.0
2018-May-26 03:00N 30°02' W 094°02'0 0.0
2018-May-26 02:30N 30°02' W 094°02'0 0.0
2018-May-26 01:57N 30°02' W 094°02'0 0.0
2018-May-26 01:30N 30°02' W 094°02'0 0.0
2018-May-26 01:00N 30°02' W 094°02'0 0.0
2018-May-26 00:30N 30°02' W 094°02'0 0.0
2018-May-26 00:00N 30°02' W 094°02'0 0.0
2018-May-25 23:30N 30°02' W 094°02'0 0.0
2018-May-25 23:00N 30°02' W 094°02'0 0.0
2018-May-25 22:30N 30°02' W 094°02'0 0.0
2018-May-25 22:00N 30°02' W 094°02'0 0.0
2018-May-25 21:30N 30°02' W 094°02'0 0.0
2018-May-25 21:00N 30°02' W 094°02'0 0.0
2018-May-25 20:30N 30°02' W 094°02'0 0.0
2018-May-25 20:00N 30°02' W 094°02'0 0.0
2018-May-25 19:30N 30°02' W 094°02'0 0.0
2018-May-25 19:00N 30°02' W 094°02'0 0.0
2018-May-25 18:30N 30°02' W 094°02'0 0.0
2018-May-25 18:00N 30°02' W 094°02'0 0.0
2018-May-25 17:30N 30°02' W 094°02'0 0.0
2018-May-25 17:00N 30°02' W 094°02'0 0.0
2018-May-25 16:30N 30°02' W 094°02'0 0.0
2018-May-25 16:00N 30°02' W 094°02'0 0.0
2018-May-25 15:30N 30°02' W 094°02'0 0.0
2018-May-25 15:00N 30°02' W 094°02'0 0.0
2018-May-25 14:30N 30°02' W 094°02'0 0.0
2018-May-25 14:00N 30°02' W 094°02'0 0.0
2018-May-25 13:27N 30°02' W 094°02'0 0.0
2018-May-25 13:00N 30°02' W 094°02'0 0.0
2018-May-25 12:30N 30°02' W 094°02'0 0.0
2018-May-25 12:00N 30°02' W 094°02'0 0.3
2018-May-25 11:30N 30°02' W 094°02'1 2.0
2018-May-25 11:00N 30°01' W 094°02'3 5.7
2018-May-25 10:30N 30°01' W 093°58'3 6.6
2018-May-25 10:00N 29°59' W 093°55'3 6.9
2018-May-25 09:30N 29°58' W 093°51'4 7.5
2018-May-25 09:00N 29°55' W 093°54'4 8.0
2018-May-25 08:30N 29°51' W 093°57'3 6.0
2018-May-25 08:00N 29°48' W 093°57'4 8.3
2018-May-25 07:30N 29°46' W 093°54'5 9.5
2018-May-25 07:00N 29°42' W 093°51'611.8
2018-May-25 06:30N 29°36' W 093°48'4 7.0
2018-May-25 06:00N 29°35' W 093°45'0 0.2
2018-May-25 04:26N 29°35' W 093°44'0 0.0
2018-May-25 03:44N 29°35' W 093°44'0 0.0
2018-May-25 03:29N 29°35' W 093°44'0 0.0
2018-May-25 02:59N 29°35' W 093°44'0 0.0
2018-May-25 02:29N 29°35' W 093°44'0 0.0
2018-May-25 01:59N 29°35' W 093°44'0 0.0
2018-May-25 01:29N 29°35' W 093°44'0 0.0
2018-May-25 00:59N 29°35' W 093°44'0 0.0
2018-May-25 00:29N 29°35' W 093°44'0 0.0
2018-May-24 23:59N 29°35' W 093°44'0 0.0
2018-May-24 23:29N 29°35' W 093°44'0 0.0
2018-May-24 22:59N 29°35' W 093°44'0 0.1
2018-May-24 22:29N 29°35' W 093°44'0 0.0
2018-May-24 21:59N 29°35' W 093°44'0 0.0
2018-May-24 21:23N 29°35' W 093°44'0 0.0
2018-May-24 20:59N 29°35' W 093°44'0 0.0
2018-May-24 20:29N 29°35' W 093°44'0 0.0
2018-May-24 19:53N 29°35' W 093°44'0 0.0
2018-May-24 19:29N 29°35' W 093°44'0 0.0
2018-May-24 18:59N 29°35' W 093°44'0 0.1
2018-May-24 18:29N 29°35' W 093°44'0 0.0
2018-May-24 17:59N 29°35' W 093°44'0 0.0
2018-May-24 17:29N 29°35' W 093°44'0 0.0
2018-May-24 16:59N 29°35' W 093°44'0 0.0
2018-May-24 16:29N 29°35' W 093°44'0 0.0
2018-May-24 15:59N 29°35' W 093°44'0 0.0
2018-May-24 15:29N 29°35' W 093°44'0 0.0
2018-May-24 14:59N 29°35' W 093°44'0 0.0
2018-May-24 14:26N 29°35' W 093°44'0 0.0
2018-May-24 13:59N 29°35' W 093°44'0 0.0
2018-May-24 13:29N 29°35' W 093°44'0 0.0
2018-May-24 08:53N 29°35' W 093°44'0 0.2
2018-May-24 08:29N 29°35' W 093°44'0 0.1
2018-May-24 07:56N 29°35' W 093°44'0 0.1
2018-May-24 07:26N 29°35' W 093°44'0 0.0
2018-May-24 06:59N 29°35' W 093°44'0 0.0
2018-May-24 06:26N 29°35' W 093°44'0 0.0
2018-May-24 05:59N 29°35' W 093°44'0 0.1
2018-May-24 05:29N 29°35' W 093°44'0 0.0
2018-May-24 04:59N 29°35' W 093°44'0 0.0
2018-May-24 04:29N 29°35' W 093°44'0 0.0
2018-May-24 03:59N 29°35' W 093°44'0 0.0
2018-May-24 03:29N 29°35' W 093°44'0 0.0
2018-May-24 02:59N 29°35' W 093°44'0 0.0
2018-May-24 02:26N 29°35' W 093°44'0 0.0
2018-May-24 01:59N 29°35' W 093°44'0 0.1
2018-May-24 01:29N 29°35' W 093°44'0 0.0
2018-May-24 00:59N 29°35' W 093°44'0 0.0
2018-May-24 00:29N 29°35' W 093°44'0 0.1
2018-May-23 23:59N 29°35' W 093°44'0 0.7
2018-May-23 23:30N 29°35' W 093°44'0 0.6
2018-May-23 23:00N 29°34' W 093°45'2 4.4
2018-May-23 22:30N 29°32' W 093°44'4 7.7
2018-May-23 22:00N 29°30' W 093°41'510.7
2018-May-23 21:30N 29°24' W 093°40'5 9.4
2018-May-23 21:00N 29°20' W 093°39'5 9.7
2018-May-23 20:30N 29°15' W 093°39'5 9.8
2018-May-23 20:00N 29°10' W 093°39'713.3
2018-May-23 19:29N 29°04' W 093°36'915.1
2018-May-23 18:54N 28°56' W 093°30'  
2018-May-21 06:23N 25°20' W 080°03'4 9.9
2018-May-21 05:59N 25°24' W 080°02'5 9.9
2018-May-21 05:30N 25°29' W 080°01'5 9.9
2018-May-21 05:00N 25°33' W 080°00'5 9.7
2018-May-21 04:30N 25°38' W 079°60'5 9.6
2018-May-21 04:00N 25°43' W 080°00'5 9.7
2018-May-21 03:30N 25°48' W 080°00'5 9.8
2018-May-21 03:01N 25°53' W 080°00'5 9.9
2018-May-21 02:30N 25°58' W 080°00'5 9.6
2018-May-21 02:00N 26°03' W 080°00'4 9.0
2018-May-21 01:30N 26°05' W 080°05'3 4.9
2018-May-21 00:58N 26°06' W 080°07'0 0.0
2018-May-21 00:28N 26°06' W 080°07'0 0.0
2018-May-20 23:58N 26°06' W 080°07'0 0.0
2018-May-20 23:28N 26°06' W 080°07'0 0.0
2018-May-20 22:58N 26°06' W 080°07'0 0.0
2018-May-20 22:28N 26°06' W 080°07'0 0.0
2018-May-20 21:58N 26°06' W 080°07'0 0.0
2018-May-20 21:28N 26°06' W 080°07'0 0.0
2018-May-20 20:58N 26°06' W 080°07'0 0.0
2018-May-20 20:28N 26°06' W 080°07'0 0.0
2018-May-20 19:58N 26°06' W 080°07'0 0.0
2018-May-20 19:28N 26°06' W 080°07'0 0.0
2018-May-20 18:52N 26°06' W 080°07'0 0.0
2018-May-20 18:28N 26°06' W 080°07'0 0.0
2018-May-20 17:52N 26°06' W 080°07'0 0.0
2018-May-20 17:28N 26°06' W 080°07'0 0.0
2018-May-20 16:58N 26°06' W 080°07'0 0.0
2018-May-20 16:28N 26°06' W 080°07'0 0.0
2018-May-20 15:55N 26°06' W 080°07'0 0.0
2018-May-20 15:28N 26°06' W 080°07'0 0.0
2018-May-20 14:58N 26°06' W 080°07'0 0.0
2018-May-20 14:28N 26°06' W 080°07'0 0.0
2018-May-20 13:49N 26°06' W 080°07'0 0.0
2018-May-20 13:28N 26°06' W 080°07'0 0.0
2018-May-20 12:58N 26°06' W 080°07'0 0.0
2018-May-20 12:28N 26°06' W 080°07'0 0.0
2018-May-20 11:52N 26°06' W 080°07'0 0.0
2018-May-20 11:28N 26°06' W 080°07'0 0.0
2018-May-20 10:49N 26°06' W 080°07'0 0.0
2018-May-20 10:28N 26°06' W 080°07'0 0.0
2018-May-20 09:55N 26°06' W 080°07'0 0.0
2018-May-20 09:28N 26°06' W 080°07'0 0.0
2018-May-20 08:58N 26°06' W 080°07'0 0.0
2018-May-20 08:28N 26°06' W 080°07'0 0.0
2018-May-20 07:58N 26°06' W 080°07'0 0.0
2018-May-20 07:28N 26°06' W 080°07'0 0.0
2018-May-20 06:58N 26°06' W 080°07'0 0.0
2018-May-20 06:28N 26°06' W 080°07'0 0.0
2018-May-20 05:58N 26°06' W 080°07'0 0.0
2018-May-20 05:28N 26°06' W 080°07'0 0.0
2018-May-20 04:58N 26°06' W 080°07'0 0.0
2018-May-20 04:28N 26°06' W 080°07'0 0.0
2018-May-20 03:58N 26°06' W 080°07'0 0.0
2018-May-20 03:28N 26°06' W 080°07'0 0.0
2018-May-20 02:58N 26°06' W 080°07'0 0.0
2018-May-20 02:28N 26°06' W 080°07'0 0.0
2018-May-20 01:58N 26°06' W 080°07'0 0.0
2018-May-20 01:28N 26°06' W 080°07'0 0.0
2018-May-20 00:58N 26°06' W 080°07'0 0.0
2018-May-20 00:28N 26°06' W 080°07'0 0.0
2018-May-19 23:58N 26°06' W 080°07'0 0.0
2018-May-19 23:28N 26°06' W 080°07'0 0.0
2018-May-19 22:55N 26°06' W 080°07'0 0.0
2018-May-19 22:28N 26°06' W 080°07'0 0.0
2018-May-19 21:55N 26°06' W 080°07'0 0.0
2018-May-19 21:22N 26°06' W 080°07'0 0.0
2018-May-19 20:58N 26°06' W 080°07'0 0.0
2018-May-19 20:22N 26°06' W 080°07'0 0.0
2018-May-19 19:58N 26°06' W 080°07'0 0.0
2018-May-19 19:28N 26°06' W 080°07'0 0.0
2018-May-19 18:58N 26°06' W 080°07'0 0.0
2018-May-19 18:28N 26°06' W 080°07'0 0.0
2018-May-19 17:58N 26°06' W 080°07'0 0.0
2018-May-19 17:28N 26°06' W 080°07'0 0.0
2018-May-19 16:58N 26°06' W 080°07'0 0.0
2018-May-19 16:28N 26°06' W 080°07'0 0.0
2018-May-19 15:58N 26°06' W 080°07'0 0.0
2018-May-19 15:28N 26°06' W 080°07'0 0.0
2018-May-19 14:58N 26°06' W 080°07'0 0.0
2018-May-19 14:28N 26°06' W 080°07'0 0.0
2018-May-19 13:58N 26°06' W 080°07'0 0.0
2018-May-19 13:28N 26°06' W 080°07'0 0.0
2018-May-19 12:58N 26°06' W 080°07'0 0.0
2018-May-19 12:28N 26°06' W 080°07'0 0.0
2018-May-19 11:59N 26°06' W 080°07'0 0.0
2018-May-19 11:29N 26°06' W 080°07'0 0.0
2018-May-19 10:59N 26°06' W 080°07'0 0.0
2018-May-19 10:29N 26°06' W 080°07'0 0.0
2018-May-19 09:59N 26°06' W 080°07'0 0.0
2018-May-19 09:29N 26°06' W 080°07'0 0.0
2018-May-19 08:59N 26°06' W 080°07'0 0.0
2018-May-19 08:30N 26°06' W 080°07'0 0.8
2018-May-19 08:00N 26°06' W 080°07'4 7.3
2018-May-19 07:30N 26°06' W 080°03'3 6.0
2018-May-19 07:00N 26°04' W 079°60'3 6.8
2018-May-19 06:30N 26°02' W 079°57'4 7.4
2018-May-19 06:00N 25°59' W 079°55'5 9.7
2018-May-19 05:30N 25°54' W 079°55'816.3
2018-May-19 05:00N 25°46' W 079°55'918.6
2018-May-19 04:31N 25°37' W 079°55'918.1
2018-May-19 04:00N 25°28' W 079°56'918.1
2018-May-19 03:31N 25°19' W 079°59'65413.8
2018-May-17 04:12N 27°23' W 091°56'314.3
2018-May-17 04:00N 27°25' W 091°59'  
Track history (hours):
 
Tides and Currents Weather Stations Pressure Air Temp Water Temp Dewpoint Dewpoint Depression Visibility Wind Speed Wind Dir Waves Ship Positions

Garden State

Owner: Crowley Petroleum Services, Inc., Jacksonville, FL. More information available from US FCC via Universal Licensing System and Coast Guard Vessel Documentation Center.

Last reported at 2018-May-27 03:31 UTC. Time now 2018-May-28 01:34 UTC.
Position N 29°16' W 093°39'.

Length 186 m; draft 11.5 m.

Type: Tanker. MMSI: 367102000.

Date/timePositionNaut miles runAvg speedWind from/ knotsBaromVisibWave heightAir tempDewpointWater temp
2018-May-27 03:31N 29°16' W 093°39'5 9.6
2018-May-27 03:00N 29°20' W 093°40'4 7.8
2018-May-27 02:30N 29°24' W 093°40'4 7.8
2018-May-27 02:00N 29°28' W 093°40'511.1
2018-May-27 01:30N 29°32' W 093°44'611.2
2018-May-27 01:01N 29°36' W 093°48'611.8
2018-May-27 00:30N 29°42' W 093°51'5 9.6
2018-May-27 00:01N 29°46' W 093°54'4 7.4
2018-May-26 23:31N 29°48' W 093°57'3 6.8
2018-May-26 23:00N 29°52' W 093°56'3 7.0
2018-May-26 22:30N 29°54' W 093°54'3 5.8
2018-May-26 22:00N 29°57' W 093°52'3 5.1
2018-May-26 21:30N 29°59' W 093°53'3 5.7
2018-May-26 21:00N 29°60' W 093°56'2 4.9
2018-May-26 20:30N 30°01' W 093°59'3 5.2
2018-May-26 20:00N 30°01' W 094°02'1 1.9
2018-May-26 19:30N 30°02' W 094°02'0 0.0
2018-May-26 18:58N 30°02' W 094°02'0 0.0
2018-May-26 18:28N 30°02' W 094°02'0 0.0
2018-May-26 17:58N 30°02' W 094°02'0 0.0
2018-May-26 17:28N 30°02' W 094°02'0 0.0
2018-May-26 16:58N 30°02' W 094°02'0 0.0
2018-May-26 16:28N 30°02' W 094°02'0 0.0
2018-May-26 15:58N 30°02' W 094°02'0 0.0
2018-May-26 15:28N 30°02' W 094°02'0 0.0
2018-May-26 14:58N 30°02' W 094°02'0 0.0
2018-May-26 14:25N 30°02' W 094°02'0 0.0
2018-May-26 13:55N 30°02' W 094°02'0 0.0
2018-May-26 13:28N 30°02' W 094°02'0 0.0
2018-May-26 12:55N 30°02' W 094°02'0 0.0
2018-May-26 12:22N 30°02' W 094°02'0 0.0
2018-May-26 11:58N 30°02' W 094°02'0 0.0
2018-May-26 11:28N 30°02' W 094°02'0 0.0
2018-May-26 10:58N 30°02' W 094°02'0 0.0
2018-May-26 10:28N 30°02' W 094°02'0 0.0
2018-May-26 09:58N 30°02' W 094°02'0 0.0
2018-May-26 09:28N 30°02' W 094°02'0 0.0
2018-May-26 08:58N 30°02' W 094°02'0 0.0
2018-May-26 08:28N 30°02' W 094°02'0 0.0
2018-May-26 07:58N 30°02' W 094°02'0 0.0
2018-May-26 07:28N 30°02' W 094°02'0 0.0
2018-May-26 06:55N 30°02' W 094°02'0 0.0
2018-May-26 06:28N 30°02' W 094°02'0 0.0
2018-May-26 05:30N 30°02' W 094°02'0 0.0
2018-May-26 05:00N 30°02' W 094°02'0 0.0
2018-May-26 04:30N 30°02' W 094°02'0 0.0
2018-May-26 03:57N 30°02' W 094°02'0 0.0
2018-May-26 03:30N 30°02' W 094°02'0 0.0
2018-May-26 03:00N 30°02' W 094°02'0 0.0
2018-May-26 02:30N 30°02' W 094°02'0 0.0
2018-May-26 01:57N 30°02' W 094°02'0 0.0
2018-May-26 01:30N 30°02' W 094°02'0 0.0
2018-May-26 01:00N 30°02' W 094°02'0 0.0
2018-May-26 00:30N 30°02' W 094°02'0 0.0
2018-May-26 00:00N 30°02' W 094°02'0 0.0
2018-May-25 23:30N 30°02' W 094°02'0 0.0
2018-May-25 23:00N 30°02' W 094°02'0 0.0
2018-May-25 22:30N 30°02' W 094°02'0 0.0
2018-May-25 22:00N 30°02' W 094°02'0 0.0
2018-May-25 21:30N 30°02' W 094°02'0 0.0
2018-May-25 21:00N 30°02' W 094°02'0 0.0
2018-May-25 20:30N 30°02' W 094°02'0 0.0
2018-May-25 20:00N 30°02' W 094°02'0 0.0
2018-May-25 19:30N 30°02' W 094°02'0 0.0
2018-May-25 19:00N 30°02' W 094°02'0 0.0
2018-May-25 18:30N 30°02' W 094°02'0 0.0
2018-May-25 18:00N 30°02' W 094°02'0 0.0
2018-May-25 17:30N 30°02' W 094°02'0 0.0
2018-May-25 17:00N 30°02' W 094°02'0 0.0
2018-May-25 16:30N 30°02' W 094°02'0 0.0
2018-May-25 16:00N 30°02' W 094°02'0 0.0
2018-May-25 15:30N 30°02' W 094°02'0 0.0
2018-May-25 15:00N 30°02' W 094°02'0 0.0
2018-May-25 14:30N 30°02' W 094°02'0 0.0
2018-May-25 14:00N 30°02' W 094°02'0 0.0
2018-May-25 13:27N 30°02' W 094°02'0 0.0
2018-May-25 13:00N 30°02' W 094°02'0 0.0
2018-May-25 12:30N 30°02' W 094°02'0 0.0
2018-May-25 12:00N 30°02' W 094°02'0 0.3
2018-May-25 11:30N 30°02' W 094°02'1 2.0
2018-May-25 11:00N 30°01' W 094°02'3 5.7
2018-May-25 10:30N 30°01' W 093°58'3 6.6
2018-May-25 10:00N 29°59' W 093°55'3 6.9
2018-May-25 09:30N 29°58' W 093°51'4 7.5
2018-May-25 09:00N 29°55' W 093°54'4 8.0
2018-May-25 08:30N 29°51' W 093°57'3 6.0
2018-May-25 08:00N 29°48' W 093°57'4 8.3
2018-May-25 07:30N 29°46' W 093°54'5 9.5
2018-May-25 07:00N 29°42' W 093°51'611.8
2018-May-25 06:30N 29°36' W 093°48'4 7.0
2018-May-25 06:00N 29°35' W 093°45'0 0.2
2018-May-25 04:26N 29°35' W 093°44'0 0.0
2018-May-25 03:44N 29°35' W 093°44'0 0.0
2018-May-25 03:29N 29°35' W 093°44'0 0.0
2018-May-25 02:59N 29°35' W 093°44'0 0.0
2018-May-25 02:29N 29°35' W 093°44'0 0.0
2018-May-25 01:59N 29°35' W 093°44'0 0.0
2018-May-25 01:29N 29°35' W 093°44'0 0.0
2018-May-25 00:59N 29°35' W 093°44'0 0.0
2018-May-25 00:29N 29°35' W 093°44'0 0.0
2018-May-24 23:59N 29°35' W 093°44'0 0.0
2018-May-24 23:29N 29°35' W 093°44'0 0.0
2018-May-24 22:59N 29°35' W 093°44'0 0.1
2018-May-24 22:29N 29°35' W 093°44'0 0.0
2018-May-24 21:59N 29°35' W 093°44'0 0.0
2018-May-24 21:23N 29°35' W 093°44'0 0.0
2018-May-24 20:59N 29°35' W 093°44'0 0.0
2018-May-24 20:29N 29°35' W 093°44'0 0.0
2018-May-24 19:53N 29°35' W 093°44'0 0.0
2018-May-24 19:29N 29°35' W 093°44'0 0.0
2018-May-24 18:59N 29°35' W 093°44'0 0.1
2018-May-24 18:29N 29°35' W 093°44'0 0.0
2018-May-24 17:59N 29°35' W 093°44'0 0.0
2018-May-24 17:29N 29°35' W 093°44'0 0.0
2018-May-24 16:59N 29°35' W 093°44'0 0.0
2018-May-24 16:29N 29°35' W 093°44'0 0.0
2018-May-24 15:59N 29°35' W 093°44'0 0.0
2018-May-24 15:29N 29°35' W 093°44'0 0.0
2018-May-24 14:59N 29°35' W 093°44'0 0.0
2018-May-24 14:26N 29°35' W 093°44'0 0.0
2018-May-24 13:59N 29°35' W 093°44'0 0.0
2018-May-24 13:29N 29°35' W 093°44'0 0.0
2018-May-24 08:53N 29°35' W 093°44'0 0.2
2018-May-24 08:29N 29°35' W 093°44'0 0.1
2018-May-24 07:56N 29°35' W 093°44'0 0.1
2018-May-24 07:26N 29°35' W 093°44'0 0.0
2018-May-24 06:59N 29°35' W 093°44'0 0.0
2018-May-24 06:26N 29°35' W 093°44'0 0.0
2018-May-24 05:59N 29°35' W 093°44'0 0.1
2018-May-24 05:29N 29°35' W 093°44'0 0.0
2018-May-24 04:59N 29°35' W 093°44'0 0.0
2018-May-24 04:29N 29°35' W 093°44'0 0.0
2018-May-24 03:59N 29°35' W 093°44'0 0.0
2018-May-24 03:29N 29°35' W 093°44'0 0.0
2018-May-24 02:59N 29°35' W 093°44'0 0.0
2018-May-24 02:26N 29°35' W 093°44'0 0.0
2018-May-24 01:59N 29°35' W 093°44'0 0.1
2018-May-24 01:29N 29°35' W 093°44'0 0.0
2018-May-24 00:59N 29°35' W 093°44'0 0.0
2018-May-24 00:29N 29°35' W 093°44'0 0.1
2018-May-23 23:59N 29°35' W 093°44'0 0.7
2018-May-23 23:30N 29°35' W 093°44'0 0.6
2018-May-23 23:00N 29°34' W 093°45'2 4.4
2018-May-23 22:30N 29°32' W 093°44'4 7.7
2018-May-23 22:00N 29°30' W 093°41'510.7
2018-May-23 21:30N 29°24' W 093°40'5 9.4
2018-May-23 21:00N 29°20' W 093°39'5 9.7
2018-May-23 20:30N 29°15' W 093°39'5 9.8
2018-May-23 20:00N 29°10' W 093°39'713.3
2018-May-23 19:29N 29°04' W 093°36'915.1
2018-May-23 18:54N 28°56' W 093°30'  
2018-May-21 06:23N 25°20' W 080°03'4 9.9
2018-May-21 05:59N 25°24' W 080°02'5 9.9
2018-May-21 05:30N 25°29' W 080°01'5 9.9
2018-May-21 05:00N 25°33' W 080°00'5 9.7
2018-May-21 04:30N 25°38' W 079°60'5 9.6
2018-May-21 04:00N 25°43' W 080°00'5 9.7
2018-May-21 03:30N 25°48' W 080°00'5 9.8
2018-May-21 03:01N 25°53' W 080°00'5 9.9
2018-May-21 02:30N 25°58' W 080°00'5 9.6
2018-May-21 02:00N 26°03' W 080°00'4 9.0
2018-May-21 01:30N 26°05' W 080°05'3 4.9
2018-May-21 00:58N 26°06' W 080°07'0 0.0
2018-May-21 00:28N 26°06' W 080°07'0 0.0
2018-May-20 23:58N 26°06' W 080°07'0 0.0
2018-May-20 23:28N 26°06' W 080°07'0 0.0
2018-May-20 22:58N 26°06' W 080°07'0 0.0
2018-May-20 22:28N 26°06' W 080°07'0 0.0
2018-May-20 21:58N 26°06' W 080°07'0 0.0
2018-May-20 21:28N 26°06' W 080°07'0 0.0
2018-May-20 20:58N 26°06' W 080°07'0 0.0
2018-May-20 20:28N 26°06' W 080°07'0 0.0
2018-May-20 19:58N 26°06' W 080°07'0 0.0
2018-May-20 19:28N 26°06' W 080°07'0 0.0
2018-May-20 18:52N 26°06' W 080°07'0 0.0
2018-May-20 18:28N 26°06' W 080°07'0 0.0
2018-May-20 17:52N 26°06' W 080°07'0 0.0
2018-May-20 17:28N 26°06' W 080°07'0 0.0
2018-May-20 16:58N 26°06' W 080°07'0 0.0
2018-May-20 16:28N 26°06' W 080°07'0 0.0
2018-May-20 15:55N 26°06' W 080°07'0 0.0
2018-May-20 15:28N 26°06' W 080°07'0 0.0
2018-May-20 14:58N 26°06' W 080°07'0 0.0
2018-May-20 14:28N 26°06' W 080°07'0 0.0
2018-May-20 13:49N 26°06' W 080°07'0 0.0
2018-May-20 13:28N 26°06' W 080°07'0 0.0
2018-May-20 12:58N 26°06' W 080°07'0 0.0
2018-May-20 12:28N 26°06' W 080°07'0 0.0
2018-May-20 11:52N 26°06' W 080°07'0 0.0
2018-May-20 11:28N 26°06' W 080°07'0 0.0
2018-May-20 10:49N 26°06' W 080°07'0 0.0
2018-May-20 10:28N 26°06' W 080°07'0 0.0
2018-May-20 09:55N 26°06' W 080°07'0 0.0
2018-May-20 09:28N 26°06' W 080°07'0 0.0
2018-May-20 08:58N 26°06' W 080°07'0 0.0
2018-May-20 08:28N 26°06' W 080°07'0 0.0
2018-May-20 07:58N 26°06' W 080°07'0 0.0
2018-May-20 07:28N 26°06' W 080°07'0 0.0
2018-May-20 06:58N 26°06' W 080°07'0 0.0
2018-May-20 06:28N 26°06' W 080°07'0 0.0
2018-May-20 05:58N 26°06' W 080°07'0 0.0
2018-May-20 05:28N 26°06' W 080°07'0 0.0
2018-May-20 04:58N 26°06' W 080°07'0 0.0
2018-May-20 04:28N 26°06' W 080°07'0 0.0
2018-May-20 03:58N 26°06' W 080°07'0 0.0
2018-May-20 03:28N 26°06' W 080°07'0 0.0
2018-May-20 02:58N 26°06' W 080°07'0 0.0
2018-May-20 02:28N 26°06' W 080°07'0 0.0
2018-May-20 01:58N 26°06' W 080°07'0 0.0
2018-May-20 01:28N 26°06' W 080°07'0 0.0
2018-May-20 00:58N 26°06' W 080°07'0 0.0
2018-May-20 00:28N 26°06' W 080°07'0 0.0
2018-May-19 23:58N 26°06' W 080°07'0 0.0
2018-May-19 23:28N 26°06' W 080°07'0 0.0
2018-May-19 22:55N 26°06' W 080°07'0 0.0
2018-May-19 22:28N 26°06' W 080°07'0 0.0
2018-May-19 21:55N 26°06' W 080°07'0 0.0
2018-May-19 21:22N 26°06' W 080°07'0 0.0
2018-May-19 20:58N 26°06' W 080°07'0 0.0
2018-May-19 20:22N 26°06' W 080°07'0 0.0
2018-May-19 19:58N 26°06' W 080°07'0 0.0
2018-May-19 19:28N 26°06' W 080°07'0 0.0
2018-May-19 18:58N 26°06' W 080°07'0 0.0
2018-May-19 18:28N 26°06' W 080°07'0 0.0
2018-May-19 17:58N 26°06' W 080°07'0 0.0
2018-May-19 17:28N 26°06' W 080°07'0 0.0
2018-May-19 16:58N 26°06' W 080°07'0 0.0
2018-May-19 16:28N 26°06' W 080°07'0 0.0
2018-May-19 15:58N 26°06' W 080°07'0 0.0
2018-May-19 15:28N 26°06' W 080°07'0 0.0
2018-May-19 14:58N 26°06' W 080°07'0 0.0
2018-May-19 14:28N 26°06' W 080°07'0 0.0
2018-May-19 13:58N 26°06' W 080°07'0 0.0
2018-May-19 13:28N 26°06' W 080°07'0 0.0
2018-May-19 12:58N 26°06' W 080°07'0 0.0
2018-May-19 12:28N 26°06' W 080°07'0 0.0
2018-May-19 11:59N 26°06' W 080°07'0 0.0
2018-May-19 11:29N 26°06' W 080°07'0 0.0
2018-May-19 10:59N 26°06' W 080°07'0 0.0
2018-May-19 10:29N 26°06' W 080°07'0 0.0
2018-May-19 09:59N 26°06' W 080°07'0 0.0
2018-May-19 09:29N 26°06' W 080°07'0 0.0
2018-May-19 08:59N 26°06' W 080°07'0 0.0
2018-May-19 08:30N 26°06' W 080°07'0 0.8
2018-May-19 08:00N 26°06' W 080°07'4 7.3
2018-May-19 07:30N 26°06' W 080°03'3 6.0
2018-May-19 07:00N 26°04' W 079°60'3 6.8
2018-May-19 06:30N 26°02' W 079°57'4 7.4
2018-May-19 06:00N 25°59' W 079°55'5 9.7
2018-May-19 05:30N 25°54' W 079°55'816.3
2018-May-19 05:00N 25°46' W 079°55'918.6
2018-May-19 04:31N 25°37' W 079°55'918.1
2018-May-19 04:00N 25°28' W 079°56'918.1
2018-May-19 03:31N 25°19' W 079°59'65413.8
2018-May-17 04:12N 27°23' W 091°56'314.3
2018-May-17 04:00N 27°25' W 091°59'  

Dump ship's entire track history